sensor_id;sensor_type;location;lat;lon;timestamp;pressure;altitude;pressure_sealevel;temperature;humidity
69957;BME280;57283;54.816;9.482;2022-12-01T00:01:13;102547.41;;;4.55;100.00
69957;BME280;57283;54.816;9.482;2022-12-01T00:03:41;102545.63;;;4.52;100.00
69957;BME280;57283;54.816;9.482;2022-12-01T00:06:11;102551.94;;;4.62;100.00
69957;BME280;57283;54.816;9.482;2022-12-01T00:08:43;102542.44;;;4.61;100.00
69957;BME280;57283;54.816;9.482;2022-12-01T00:11:32;102536.88;;;4.47;100.00
69957;BME280;57283;54.816;9.482;2022-12-01T00:13:59;102551.84;;;4.59;100.00
69957;BME280;57283;54.816;9.482;2022-12-01T00:16:27;102541.31;;;4.53;100.00
69957;BME280;57283;54.816;9.482;2022-12-01T00:18:56;102521.41;;;4.49;100.00
69957;BME280;57283;54.816;9.482;2022-12-01T00:21:24;102527.50;;;4.51;100.00
69957;BME280;57283;54.816;9.482;2022-12-01T00:23:55;102529.16;;;4.49;100.00
69957;BME280;57283;54.816;9.482;2022-12-01T00:26:24;102527.56;;;4.54;100.00
69957;BME280;57283;54.816;9.482;2022-12-01T00:28:54;102538.09;;;4.60;100.00
69957;BME280;57283;54.816;9.482;2022-12-01T00:31:22;102541.31;;;4.53;100.00
69957;BME280;57283;54.816;9.482;2022-12-01T00:33:50;102543.16;;;4.57;100.00
69957;BME280;57283;54.816;9.482;2022-12-01T00:36:18;102541.50;;;4.59;100.00
69957;BME280;57283;54.816;9.482;2022-12-01T00:38:50;102544.94;;;4.58;100.00
69957;BME280;57283;54.816;9.482;2022-12-01T00:41:19;102546.34;;;4.47;100.00
69957;BME280;57283;54.816;9.482;2022-12-01T00:43:47;102539.16;;;4.37;100.00
69957;BME280;57283;54.816;9.482;2022-12-01T00:46:15;102545.88;;;4.30;100.00
69957;BME280;57283;54.816;9.482;2022-12-01T00:48:43;102559.03;;;4.38;100.00
69957;BME280;57283;54.816;9.482;2022-12-01T00:51:11;102558.28;;;4.42;100.00
69957;BME280;57283;54.816;9.482;2022-12-01T00:53:39;102551.34;;;4.41;100.00
69957;BME280;57283;54.816;9.482;2022-12-01T00:56:07;102555.66;;;4.40;100.00
69957;BME280;57283;54.816;9.482;2022-12-01T00:58:36;102556.16;;;4.59;100.00
69957;BME280;57283;54.816;9.482;2022-12-01T01:01:04;102557.03;;;4.59;100.00
69957;BME280;57283;54.816;9.482;2022-12-01T01:03:32;102551.63;;;4.50;100.00
69957;BME280;57283;54.816;9.482;2022-12-01T01:06:05;102538.91;;;4.28;100.00
69957;BME280;57283;54.816;9.482;2022-12-01T01:08:34;102559.09;;;4.41;100.00
69957;BME280;57283;54.816;9.482;2022-12-01T01:11:02;102563.22;;;4.33;100.00
69957;BME280;57283;54.816;9.482;2022-12-01T01:13:31;102562.66;;;4.44;100.00
69957;BME280;57283;54.816;9.482;2022-12-01T01:16:02;102561.00;;;4.46;100.00
69957;BME280;57283;54.816;9.482;2022-12-01T01:18:31;102558.97;;;4.36;100.00
69957;BME280;57283;54.816;9.482;2022-12-01T01:21:00;102559.84;;;4.37;100.00
69957;BME280;57283;54.816;9.482;2022-12-01T01:23:29;102571.16;;;4.40;100.00
69957;BME280;57283;54.816;9.482;2022-12-01T01:26:00;102567.50;;;4.32;100.00
69957;BME280;57283;54.816;9.482;2022-12-01T01:28:29;102571.31;;;4.45;100.00
69957;BME280;57283;54.816;9.482;2022-12-01T01:30:57;102554.94;;;4.46;100.00
69957;BME280;57283;54.816;9.482;2022-12-01T01:33:26;102568.81;;;4.48;100.00
69957;BME280;57283;54.816;9.482;2022-12-01T01:35:57;102550.34;;;4.36;100.00
69957;BME280;57283;54.816;9.482;2022-12-01T01:38:25;102572.38;;;4.51;100.00
69957;BME280;57283;54.816;9.482;2022-12-01T01:40:53;102567.19;;;4.53;100.00
69957;BME280;57283;54.816;9.482;2022-12-01T01:43:39;102569.50;;;4.42;100.00
69957;BME280;57283;54.816;9.482;2022-12-01T01:46:09;102568.53;;;4.39;100.00
69957;BME280;57283;54.816;9.482;2022-12-01T01:48:40;102569.69;;;4.48;100.00
69957;BME280;57283;54.816;9.482;2022-12-01T01:51:10;102565.66;;;4.28;100.00
69957;BME280;57283;54.816;9.482;2022-12-01T01:53:39;102563.22;;;4.33;100.00
69957;BME280;57283;54.816;9.482;2022-12-01T01:56:07;102566.19;;;4.46;100.00
69957;BME280;57283;54.816;9.482;2022-12-01T01:58:36;102561.09;;;4.49;100.00
69957;BME280;57283;54.816;9.482;2022-12-01T02:01:05;102563.78;;;4.54;100.00
69957;BME280;57283;54.816;9.482;2022-12-01T02:03:36;102538.03;;;4.27;100.00
69957;BME280;57283;54.816;9.482;2022-12-01T02:06:07;102561.03;;;4.48;100.00
69957;BME280;57283;54.816;9.482;2022-12-01T02:08:36;102556.53;;;4.41;100.00
69957;BME280;57283;54.816;9.482;2022-12-01T02:11:24;102560.88;;;4.42;100.00
69957;BME280;57283;54.816;9.482;2022-12-01T02:14:05;102566.72;;;4.35;100.00
69957;BME280;57283;54.816;9.482;2022-12-01T02:16:39;102562.09;;;4.25;100.00
69957;BME280;57283;54.816;9.482;2022-12-01T02:19:28;102563.84;;;4.26;100.00
69957;BME280;57283;54.816;9.482;2022-12-01T02:22:16;102504.22;;;3.90;100.00
69957;BME280;57283;54.816;9.482;2022-12-01T02:24:54;102570.97;;;4.33;100.00
69957;BME280;57283;54.816;9.482;2022-12-01T02:27:41;102583.06;;;4.34;100.00
69957;BME280;57283;54.816;9.482;2022-12-01T02:30:16;102576.28;;;4.39;100.00
69957;BME280;57283;54.816;9.482;2022-12-01T02:33:00;102557.59;;;4.17;100.00
69957;BME280;57283;54.816;9.482;2022-12-01T02:35:34;102567.28;;;4.25;100.00
69957;BME280;57283;54.816;9.482;2022-12-01T02:38:12;102571.03;;;4.34;100.00
69957;BME280;57283;54.816;9.482;2022-12-01T02:40:45;102566.63;;;4.32;100.00
69957;BME280;57283;54.816;9.482;2022-12-01T02:43:23;102576.19;;;4.36;100.00
69957;BME280;57283;54.816;9.482;2022-12-01T02:45:57;102561.09;;;4.19;100.00
69957;BME280;57283;54.816;9.482;2022-12-01T02:48:30;102578.72;;;4.33;100.00
69957;BME280;57283;54.816;9.482;2022-12-01T02:51:02;102571.06;;;4.37;100.00
69957;BME280;57283;54.816;9.482;2022-12-01T02:53:33;102568.63;;;4.42;100.00
69957;BME280;57283;54.816;9.482;2022-12-01T02:56:06;102567.16;;;4.50;100.00
69957;BME280;57283;54.816;9.482;2022-12-01T02:58:34;102565.31;;;4.46;100.00
69957;BME280;57283;54.816;9.482;2022-12-01T03:01:23;102556.28;;;4.32;100.00
69957;BME280;57283;54.816;9.482;2022-12-01T03:04:00;102563.22;;;4.33;100.00
69957;BME280;57283;54.816;9.482;2022-12-01T03:06:38;102574.81;;;4.47;100.00
69957;BME280;57283;54.816;9.482;2022-12-01T03:09:15;102442.44;;;3.69;100.00
69957;BME280;57283;54.816;9.482;2022-12-01T03:11:49;102573.81;;;4.42;100.00
69957;BME280;57283;54.816;9.482;2022-12-01T03:14:30;102566.91;;;4.42;100.00
69957;BME280;57283;54.816;9.482;2022-12-01T03:17:03;102569.53;;;4.44;100.00
69957;BME280;57283;54.816;9.482;2022-12-01T03:19:40;102580.41;;;4.31;100.00
69957;BME280;57283;54.816;9.482;2022-12-01T03:22:11;102566.63;;;4.32;100.00
69957;BME280;57283;54.816;9.482;2022-12-01T03:24:43;102568.53;;;4.39;100.00
69957;BME280;57283;54.816;9.482;2022-12-01T03:27:13;102567.69;;;4.40;100.00
69957;BME280;57283;54.816;9.482;2022-12-01T03:29:45;102570.03;;;4.31;100.00
69957;BME280;57283;54.816;9.482;2022-12-01T03:32:19;102571.44;;;4.19;100.00
69957;BME280;57283;54.816;9.482;2022-12-01T03:34:53;102577.13;;;4.38;100.00
69957;BME280;57283;54.816;9.482;2022-12-01T03:37:26;102577.13;;;4.38;100.00
69957;BME280;57283;54.816;9.482;2022-12-01T03:39:58;102578.41;;;4.22;100.00
69957;BME280;57283;54.816;9.482;2022-12-01T03:42:31;102576.78;;;4.26;100.00
69957;BME280;57283;54.816;9.482;2022-12-01T03:45:04;102567.47;;;4.31;100.00
69957;BME280;57283;54.816;9.482;2022-12-01T03:47:34;102561.56;;;4.35;100.00
69957;BME280;57283;54.816;9.482;2022-12-01T03:50:06;102538.50;;;4.12;100.00
69957;BME280;57283;54.816;9.482;2022-12-01T03:52:44;102570.13;;;4.34;100.00
69957;BME280;57283;54.816;9.482;2022-12-01T03:55:18;102563.13;;;4.30;100.00
69957;BME280;57283;54.816;9.482;2022-12-01T03:57:49;102573.38;;;4.27;100.00
69957;BME280;57283;54.816;9.482;2022-12-01T04:00:20;102562.78;;;4.19;100.00
69957;BME280;57283;54.816;9.482;2022-12-01T04:02:54;102569.78;;;4.21;100.00
69957;BME280;57283;54.816;9.482;2022-12-01T04:05:24;102580.22;;;4.25;100.00
69957;BME280;57283;54.816;9.482;2022-12-01T04:07:52;102570.59;;;4.20;100.00
69957;BME280;57283;54.816;9.482;2022-12-01T04:10:20;102582.66;;;4.20;100.00
69957;BME280;57283;54.816;9.482;2022-12-01T04:12:48;102577.81;;;4.31;100.00
69957;BME280;57283;54.816;9.482;2022-12-01T04:15:15;102575.03;;;4.25;100.00
69957;BME280;57283;54.816;9.482;2022-12-01T04:17:43;102573.38;;;4.27;100.00
69957;BME280;57283;54.816;9.482;2022-12-01T04:20:12;102579.41;;;4.27;100.00
69957;BME280;57283;54.816;9.482;2022-12-01T04:22:42;102579.66;;;4.35;100.00
69957;BME280;57283;54.816;9.482;2022-12-01T04:25:10;102579.66;;;4.35;100.00
69957;BME280;57283;54.816;9.482;2022-12-01T04:27:38;102590.88;;;4.37;100.00
69957;BME280;57283;54.816;9.482;2022-12-01T04:30:07;102592.84;;;4.44;100.00
69957;BME280;57283;54.816;9.482;2022-12-01T04:32:37;102572.03;;;4.41;100.00
69957;BME280;57283;54.816;9.482;2022-12-01T04:35:06;102590.88;;;4.37;100.00
69957;BME280;57283;54.816;9.482;2022-12-01T04:37:34;102590.47;;;4.21;100.00
69957;BME280;57283;54.816;9.482;2022-12-01T04:40:04;102583.66;;;4.25;100.00
69957;BME280;57283;54.816;9.482;2022-12-01T04:42:32;102587.88;;;4.21;100.00
69957;BME280;57283;54.816;9.482;2022-12-01T04:45:00;102599.31;;;4.30;100.00
69957;BME280;57283;54.816;9.482;2022-12-01T04:47:28;102597.03;;;4.40;100.00
69957;BME280;57283;54.816;9.482;2022-12-01T04:49:56;102596.94;;;4.37;100.00
69957;BME280;57283;54.816;9.482;2022-12-01T04:52:23;102609.59;;;4.27;100.00
69957;BME280;57283;54.816;9.482;2022-12-01T04:54:59;102609.91;;;4.39;100.00
69957;BME280;57283;54.816;9.482;2022-12-01T04:57:28;102605.69;;;4.41;100.00
69957;BME280;57283;54.816;9.482;2022-12-01T04:59:56;102595.91;;;4.31;100.00
69957;BME280;57283;54.816;9.482;2022-12-01T05:02:23;102608.75;;;4.28;100.00
69957;BME280;57283;54.816;9.482;2022-12-01T05:04:51;102602.56;;;4.22;100.00
69957;BME280;57283;54.816;9.482;2022-12-01T05:07:19;102610.72;;;4.36;100.00
69957;BME280;57283;54.816;9.482;2022-12-01T05:09:47;102602.94;;;4.36;100.00
69957;BME280;57283;54.816;9.482;2022-12-01T05:12:16;102603.19;;;4.44;100.00
69957;BME280;57283;54.816;9.482;2022-12-01T05:14:46;102606.06;;;4.25;100.00
69957;BME280;57283;54.816;9.482;2022-12-01T05:17:14;102608.50;;;4.20;100.00
69957;BME280;57283;54.816;9.482;2022-12-01T05:19:42;102579.78;;;4.09;100.00
69957;BME280;57283;54.816;9.482;2022-12-01T05:22:27;102609.31;;;4.17;100.00
69957;BME280;57283;54.816;9.482;2022-12-01T05:25:15;102618.31;;;4.30;100.00
69957;BME280;57283;54.816;9.482;2022-12-01T05:27:43;102614.84;;;4.30;100.00
69957;BME280;57283;54.816;9.482;2022-12-01T05:30:12;102617.25;;;4.24;100.00
69957;BME280;57283;54.816;9.482;2022-12-01T05:32:40;102620.91;;;4.30;100.00
69957;BME280;57283;54.816;9.482;2022-12-01T05:35:08;102607.72;;;4.22;100.00
69957;BME280;57283;54.816;9.482;2022-12-01T05:37:36;102620.81;;;4.27;100.00
69957;BME280;57283;54.816;9.482;2022-12-01T05:40:06;102623.69;;;4.38;100.00
69957;BME280;57283;54.816;9.482;2022-12-01T05:42:33;102625.16;;;4.28;100.00
69957;BME280;57283;54.816;9.482;2022-12-01T05:45:01;102591.59;;;4.01;100.00
69957;BME280;57283;54.816;9.482;2022-12-01T05:47:31;102624.84;;;4.19;100.00
69957;BME280;57283;54.816;9.482;2022-12-01T05:49:59;102619.94;;;4.27;100.00
69957;BME280;57283;54.816;9.482;2022-12-01T05:52:32;102621.69;;;4.28;100.00
69957;BME280;57283;54.816;9.482;2022-12-01T05:55:00;102616.41;;;4.25;100.00
69957;BME280;57283;54.816;9.482;2022-12-01T05:57:27;102624.84;;;4.17;100.00
69957;BME280;57283;54.816;9.482;2022-12-01T05:59:55;102610.00;;;4.12;100.00
69957;BME280;57283;54.816;9.482;2022-12-01T06:02:23;102619.81;;;4.24;100.00
69957;BME280;57283;54.816;9.482;2022-12-01T06:04:54;102611.00;;;4.15;100.00
69957;BME280;57283;54.816;9.482;2022-12-01T06:07:21;102623.16;;;4.19;100.00
69957;BME280;57283;54.816;9.482;2022-12-01T06:09:51;102600.66;;;4.15;100.00
69957;BME280;57283;54.816;9.482;2022-12-01T06:12:19;102627.63;;;4.25;100.00
69957;BME280;57283;54.816;9.482;2022-12-01T06:14:47;102625.00;;;4.24;100.00
69957;BME280;57283;54.816;9.482;2022-12-01T06:17:15;102621.44;;;4.18;100.00
69957;BME280;57283;54.816;9.482;2022-12-01T06:19:43;102627.19;;;4.40;100.00
69957;BME280;57283;54.816;9.482;2022-12-01T06:22:15;102635.34;;;4.24;100.00
69957;BME280;57283;54.816;9.482;2022-12-01T06:24:42;102626.66;;;4.21;100.00
69957;BME280;57283;54.816;9.482;2022-12-01T06:27:10;102630.06;;;4.20;100.00
69957;BME280;57283;54.816;9.482;2022-12-01T06:29:38;102632.75;;;4.24;100.00
69957;BME280;57283;54.816;9.482;2022-12-01T06:32:13;102553.47;;;3.66;100.00
69957;BME280;57283;54.816;9.482;2022-12-01T06:34:41;102631.78;;;4.18;100.00
69957;BME280;57283;54.816;9.482;2022-12-01T06:37:09;102627.53;;;4.22;100.00
69957;BME280;57283;54.816;9.482;2022-12-01T06:39:38;102640.41;;;4.20;100.00
69957;BME280;57283;54.816;9.482;2022-12-01T06:42:06;102613.94;;;3.99;100.00
69957;BME280;57283;54.816;9.482;2022-12-01T06:44:34;102628.16;;;4.13;100.00
69957;BME280;57283;54.816;9.482;2022-12-01T06:47:02;102642.19;;;4.21;100.00
69957;BME280;57283;54.816;9.482;2022-12-01T06:49:30;102638.75;;;4.22;100.00
69957;BME280;57283;54.816;9.482;2022-12-01T06:51:57;102636.94;;;4.18;100.00
69957;BME280;57283;54.816;9.482;2022-12-01T06:54:26;102648.28;;;4.24;100.00
69957;BME280;57283;54.816;9.482;2022-12-01T06:56:55;102649.97;;;4.23;100.00
69957;BME280;57283;54.816;9.482;2022-12-01T06:59:24;102643.84;;;4.19;100.00
69957;BME280;57283;54.816;9.482;2022-12-01T07:01:52;102642.19;;;4.21;100.00
69957;BME280;57283;54.816;9.482;2022-12-01T07:04:22;102651.78;;;4.26;100.00
69957;BME280;57283;54.816;9.482;2022-12-01T07:06:49;102649.88;;;4.20;100.00
69957;BME280;57283;54.816;9.482;2022-12-01T07:09:17;102639.78;;;4.28;100.00
69957;BME280;57283;54.816;9.482;2022-12-01T07:11:45;102662.44;;;4.36;100.00
69957;BME280;57283;54.816;9.482;2022-12-01T07:14:21;102664.81;;;4.29;100.00
69957;BME280;57283;54.816;9.482;2022-12-01T07:16:49;102658.00;;;4.31;100.00
69957;BME280;57283;54.816;9.482;2022-12-01T07:19:17;102656.97;;;4.26;100.00
69957;BME280;57283;54.816;9.482;2022-12-01T07:21:45;102664.72;;;4.26;100.00
69957;BME280;57283;54.816;9.482;2022-12-01T07:24:13;102658.00;;;4.31;100.00
69957;BME280;57283;54.816;9.482;2022-12-01T07:26:41;102666.94;;;4.42;100.00
69957;BME280;57283;54.816;9.482;2022-12-01T07:29:10;102668.50;;;4.37;100.00
69957;BME280;57283;54.816;9.482;2022-12-01T07:31:39;102671.09;;;4.37;100.00
69957;BME280;57283;54.816;9.482;2022-12-01T07:34:10;102663.50;;;4.43;100.00
69957;BME280;57283;54.816;9.482;2022-12-01T07:36:38;102664.13;;;4.34;100.00
69957;BME280;57283;54.816;9.482;2022-12-01T07:39:07;102680.56;;;4.36;100.00
69957;BME280;57283;54.816;9.482;2022-12-01T07:41:35;102673.56;;;4.32;100.00
69957;BME280;57283;54.816;9.482;2022-12-01T07:44:03;102679.41;;;4.27;100.00
69957;BME280;57283;54.816;9.482;2022-12-01T07:46:31;102668.34;;;4.31;100.00
69957;BME280;57283;54.816;9.482;2022-12-01T07:49:04;102681.47;;;4.38;100.00
69957;BME280;57283;54.816;9.482;2022-12-01T07:51:32;102677.22;;;4.40;100.00
69957;BME280;57283;54.816;9.482;2022-12-01T07:54:01;102679.03;;;4.43;100.00
69957;BME280;57283;54.816;9.482;2022-12-01T07:56:29;102686.84;;;4.44;100.00
69957;BME280;57283;54.816;9.482;2022-12-01T07:58:57;102683.28;;;4.41;100.00
69957;BME280;57283;54.816;9.482;2022-12-01T08:01:25;102678.00;;;4.38;100.00
69957;BME280;57283;54.816;9.482;2022-12-01T08:03:54;102677.28;;;4.42;100.00
69957;BME280;57283;54.816;9.482;2022-12-01T08:06:24;102682.56;;;4.45;100.00
69957;BME280;57283;54.816;9.482;2022-12-01T08:08:52;102681.97;;;4.55;100.00
69957;BME280;57283;54.816;9.482;2022-12-01T08:11:22;102685.72;;;4.65;100.00
69957;BME280;57283;54.816;9.482;2022-12-01T08:13:51;102681.75;;;4.47;100.00
69957;BME280;57283;54.816;9.482;2022-12-01T08:16:21;102687.97;;;4.54;100.00
69957;BME280;57283;54.816;9.482;2022-12-01T08:18:49;102692.25;;;4.52;100.00
69957;BME280;57283;54.816;9.482;2022-12-01T08:21:21;102687.19;;;4.56;100.00
69957;BME280;57283;54.816;9.482;2022-12-01T08:23:53;102688.94;;;4.57;100.00
69957;BME280;57283;54.816;9.482;2022-12-01T08:26:23;102665.06;;;4.38;100.00
69957;BME280;57283;54.816;9.482;2022-12-01T08:28:51;102686.88;;;4.46;100.00
69957;BME280;57283;54.816;9.482;2022-12-01T08:31:22;102694.91;;;4.55;100.00
69957;BME280;57283;54.816;9.482;2022-12-01T08:33:51;102599.31;;;4.00;100.00
69957;BME280;57283;54.816;9.482;2022-12-01T08:36:20;102706.47;;;4.66;100.00
69957;BME280;57283;54.816;9.482;2022-12-01T08:38:50;102697.59;;;4.58;100.00
69957;BME280;57283;54.816;9.482;2022-12-01T08:41:19;102701.00;;;4.57;100.00
69957;BME280;57283;54.816;9.482;2022-12-01T08:43:47;102706.53;;;4.69;100.00
69957;BME280;57283;54.816;9.482;2022-12-01T08:46:24;102704.03;;;4.72;100.00
69957;BME280;57283;54.816;9.482;2022-12-01T08:48:52;102666.56;;;4.30;100.00
69957;BME280;57283;54.816;9.482;2022-12-01T08:51:23;102593.75;;;3.88;100.00
69957;BME280;57283;54.816;9.482;2022-12-01T08:53:51;102707.13;;;4.59;100.00
69957;BME280;57283;54.816;9.482;2022-12-01T08:56:22;102705.88;;;4.46;100.00
69957;BME280;57283;54.816;9.482;2022-12-01T08:58:52;102709.41;;;4.48;100.00
69957;BME280;57283;54.816;9.482;2022-12-01T09:01:20;102703.38;;;4.49;100.00
69957;BME280;57283;54.816;9.482;2022-12-01T09:03:48;102640.72;;;4.30;100.00
69957;BME280;57283;54.816;9.482;2022-12-01T09:06:32;102714.72;;;4.83;100.00
69957;BME280;57283;54.816;9.482;2022-12-01T09:09:00;102711.16;;;4.79;100.00
69957;BME280;57283;54.816;9.482;2022-12-01T09:11:29;102716.69;;;4.62;100.00
69957;BME280;57283;54.816;9.482;2022-12-01T09:13:57;102723.81;;;4.69;100.00
69957;BME280;57283;54.816;9.482;2022-12-01T09:16:25;102714.69;;;4.53;100.00
69957;BME280;57283;54.816;9.482;2022-12-01T09:18:54;102695.78;;;4.55;100.00
69957;BME280;57283;54.816;9.482;2022-12-01T09:21:25;102710.97;;;4.73;100.00
69957;BME280;57283;54.816;9.482;2022-12-01T09:23:53;102710.97;;;4.73;100.00
69957;BME280;57283;54.816;9.482;2022-12-01T09:26:21;102714.66;;;4.81;100.00
69957;BME280;57283;54.816;9.482;2022-12-01T09:28:54;102710.41;;;4.83;100.00
69957;BME280;57283;54.816;9.482;2022-12-01T09:31:22;102700.47;;;4.67;100.00
69957;BME280;57283;54.816;9.482;2022-12-01T09:33:53;102699.47;;;4.94;100.00
69957;BME280;57283;54.816;9.482;2022-12-01T09:36:22;102700.91;;;4.82;100.00
69957;BME280;57283;54.816;9.482;2022-12-01T09:38:50;102699.75;;;4.73;100.00
69957;BME280;57283;54.816;9.482;2022-12-01T09:41:20;102702.28;;;5.01;100.00
69957;BME280;57283;54.816;9.482;2022-12-01T09:43:55;102702.03;;;4.92;100.00
69957;BME280;57283;54.816;9.482;2022-12-01T09:46:28;102694.13;;;4.87;100.00
69957;BME280;57283;54.816;9.482;2022-12-01T09:49:00;102710.44;;;5.15;100.00
69957;BME280;57283;54.816;9.482;2022-12-01T09:51:30;102693.47;;;4.95;100.00
69957;BME280;57283;54.816;9.482;2022-12-01T09:54:02;102699.91;;;5.09;100.00
69957;BME280;57283;54.816;9.482;2022-12-01T09:56:32;102697.47;;;5.15;100.00
69957;BME280;57283;54.816;9.482;2022-12-01T09:59:06;102702.06;;;5.25;100.00
69957;BME280;57283;54.816;9.482;2022-12-01T10:01:41;102707.88;;;5.49;100.00
69957;BME280;57283;54.816;9.482;2022-12-01T10:04:13;102706.09;;;5.14;100.00
69957;BME280;57283;54.816;9.482;2022-12-01T10:06:50;102697.06;;;5.31;100.00
69957;BME280;57283;54.816;9.482;2022-12-01T10:09:21;102682.38;;;4.99;100.00
69957;BME280;57283;54.816;9.482;2022-12-01T10:11:53;102687.88;;;5.11;100.00
69957;BME280;57283;54.816;9.482;2022-12-01T10:14:28;102696.91;;;5.26;100.00
69957;BME280;57283;54.816;9.482;2022-12-01T10:17:03;102700.66;;;5.36;100.00
69957;BME280;57283;54.816;9.482;2022-12-01T10:19:41;102693.53;;;5.29;100.00
69957;BME280;57283;54.816;9.482;2022-12-01T10:25:15;102701.31;;;5.29;100.00
69957;BME280;57283;54.816;9.482;2022-12-01T10:27:53;102685.44;;;5.17;100.00
69957;BME280;57283;54.816;9.482;2022-12-01T10:30:27;102689.16;;;5.26;100.00
69957;BME280;57283;54.816;9.482;2022-12-01T10:32:57;102686.38;;;5.19;100.00
69957;BME280;57283;54.816;9.482;2022-12-01T10:35:30;102687.88;;;5.11;100.00
69957;BME280;57283;54.816;9.482;2022-12-01T10:38:03;102687.03;;;5.12;100.00
69957;BME280;57283;54.816;9.482;2022-12-01T10:40:32;102685.03;;;5.02;100.00
69957;BME280;57283;54.816;9.482;2022-12-01T10:43:01;102686.25;;;5.14;100.00
69957;BME280;57283;54.816;9.482;2022-12-01T10:45:33;102666.31;;;5.12;100.00
69957;BME280;57283;54.816;9.482;2022-12-01T10:48:14;102677.81;;;5.23;100.00
69957;BME280;57283;54.816;9.482;2022-12-01T10:50:43;102686.44;;;5.22;100.00
69957;BME280;57283;54.816;9.482;2022-12-01T10:53:35;102680.13;;;5.12;100.00
69957;BME280;57283;54.816;9.482;2022-12-01T10:56:07;102685.94;;;5.04;100.00
69957;BME280;57283;54.816;9.482;2022-12-01T10:58:42;102683.94;;;4.94;100.00
69957;BME280;57283;54.816;9.482;2022-12-01T11:01:18;102681.84;;;5.12;100.00
69957;BME280;57283;54.816;9.482;2022-12-01T11:03:51;102684.63;;;4.88;100.00
69957;BME280;57283;54.816;9.482;2022-12-01T11:06:25;102668.31;;;4.90;100.00
69957;BME280;57283;54.816;9.482;2022-12-01T11:08:56;102682.38;;;4.99;100.00
69957;BME280;57283;54.816;9.482;2022-12-01T11:11:29;102687.38;;;4.93;100.00
69957;BME280;57283;54.816;9.482;2022-12-01T11:14:00;102680.34;;;4.88;100.00
69957;BME280;57283;54.816;9.482;2022-12-01T11:16:40;102689.13;;;4.94;100.00
69957;BME280;57283;54.816;9.482;2022-12-01T11:19:18;102682.00;;;4.86;100.00
69957;BME280;57283;54.816;9.482;2022-12-01T11:21:54;102685.47;;;4.85;100.00
69957;BME280;57283;54.816;9.482;2022-12-01T11:24:38;102678.34;;;4.78;100.00
69957;BME280;57283;54.816;9.482;2022-12-01T11:27:14;102675.13;;;4.87;100.00
69957;BME280;57283;54.816;9.482;2022-12-01T11:29:43;102664.75;;;4.85;100.00
69957;BME280;57283;54.816;9.482;2022-12-01T11:32:19;102665.25;;;5.05;100.00
69957;BME280;57283;54.816;9.482;2022-12-01T11:34:50;102660.31;;;5.13;100.00
69957;BME280;57283;54.816;9.482;2022-12-01T11:37:21;102600.59;;;4.75;100.00
69957;BME280;57283;54.816;9.482;2022-12-01T11:39:51;102638.97;;;4.90;100.00
69957;BME280;57283;54.816;9.482;2022-12-01T11:42:24;102652.53;;;5.13;100.00
69957;BME280;57283;54.816;9.482;2022-12-01T11:44:54;102615.94;;;4.69;100.00
69957;BME280;57283;54.816;9.482;2022-12-01T11:47:26;102616.31;;;4.81;100.00
69957;BME280;57283;54.816;9.482;2022-12-01T11:49:55;102654.59;;;5.26;100.00
69957;BME280;57283;54.816;9.482;2022-12-01T11:52:27;102648.66;;;5.30;100.00
69957;BME280;57283;54.816;9.482;2022-12-01T11:54:58;102608.25;;;5.04;100.00
69957;BME280;57283;54.816;9.482;2022-12-01T11:57:35;102648.56;;;5.27;100.00
69957;BME280;57283;54.816;9.482;2022-12-01T12:00:12;102651.16;;;5.27;100.00
69957;BME280;57283;54.816;9.482;2022-12-01T12:02:47;102647.75;;;5.28;100.00
69957;BME280;57283;54.816;9.482;2022-12-01T12:05:36;102649.47;;;5.28;100.00
69957;BME280;57283;54.816;9.482;2022-12-01T12:08:13;102651.09;;;5.24;100.00
69957;BME280;57283;54.816;9.482;2022-12-01T12:10:48;102640.94;;;4.99;100.00
69957;BME280;57283;54.816;9.482;2022-12-01T12:16:21;102653.59;;;5.21;100.00
69957;BME280;57283;54.816;9.482;2022-12-01T12:19:12;102653.53;;;5.18;100.00
69957;BME280;57283;54.816;9.482;2022-12-01T12:21:49;102650.22;;;5.23;100.00
69957;BME280;57283;54.816;9.482;2022-12-01T12:24:32;102648.00;;;5.06;100.00
69957;BME280;57283;54.816;9.482;2022-12-01T12:27:08;102662.28;;;5.23;100.00
69957;BME280;57283;54.816;9.482;2022-12-01T12:29:53;102662.38;;;5.26;100.00
69957;BME280;57283;54.816;9.482;2022-12-01T12:32:37;102661.84;;;5.39;100.00
69957;BME280;57283;54.816;9.482;2022-12-01T12:35:20;102664.97;;;5.26;100.00
69957;BME280;57283;54.816;9.482;2022-12-01T12:37:53;102659.16;;;5.02;100.00
69957;BME280;57283;54.816;9.482;2022-12-01T12:40:36;102661.88;;;5.08;100.00
69957;BME280;57283;54.816;9.482;2022-12-01T12:43:18;102664.13;;;5.27;100.00
69957;BME280;57283;54.816;9.482;2022-12-01T12:45:56;102656.19;;;5.21;100.00
69957;BME280;57283;54.816;9.482;2022-12-01T12:48:37;102675.53;;;5.01;100.00
69957;BME280;57283;54.816;9.482;2022-12-01T12:51:33;102663.88;;;4.86;100.00
69957;BME280;57283;54.816;9.482;2022-12-01T12:54:11;102667.66;;;4.98;100.00
69957;BME280;57283;54.816;9.482;2022-12-01T12:56:44;102666.13;;;5.06;100.00
69957;BME280;57283;54.816;9.482;2022-12-01T12:59:15;102652.22;;;5.01;100.00
69957;BME280;57283;54.816;9.482;2022-12-01T13:01:51;102660.22;;;5.10;100.00
69957;BME280;57283;54.816;9.482;2022-12-01T13:04:26;102652.56;;;5.14;100.00
69957;BME280;57283;54.816;9.482;2022-12-01T13:07:01;102656.97;;;5.17;100.00
69957;BME280;57283;54.816;9.482;2022-12-01T13:09:34;102638.44;;;5.02;100.00
69957;BME280;57283;54.816;9.482;2022-12-01T13:12:08;102657.72;;;5.13;100.00
69957;BME280;57283;54.816;9.482;2022-12-01T13:14:44;102643.53;;;4.99;100.00
69957;BME280;57283;54.816;9.482;2022-12-01T13:17:18;102638.34;;;4.99;100.00
69957;BME280;57283;54.816;9.482;2022-12-01T13:19:48;102638.03;;;5.21;100.00